createdAt,value
2024-02-29T00:00:30.127Z,1011.99
2024-02-29T00:14:13.535Z,1011.96
2024-02-29T00:15:13.483Z,1011.96
2024-02-29T00:16:13.543Z,1011.96
2024-02-29T00:17:13.445Z,1011.93
2024-02-29T00:18:13.461Z,1011.96
2024-02-29T00:19:13.409Z,1011.94
2024-02-29T00:20:13.346Z,1011.91
2024-02-29T00:21:13.313Z,1011.93
2024-02-29T00:22:13.390Z,1011.88
2024-02-29T00:23:13.263Z,1011.90
2024-02-29T00:24:13.226Z,1011.84
2024-02-29T00:25:13.294Z,1011.81
2024-02-29T00:26:13.180Z,1011.84
2024-02-29T00:27:13.147Z,1011.84
2024-02-29T00:28:13.187Z,1011.84
2024-02-29T00:29:13.097Z,1011.80
2024-02-29T00:30:13.096Z,1011.81
2024-02-29T00:31:13.056Z,1011.77
2024-02-29T00:32:13.009Z,1011.79
2024-02-29T00:33:13.088Z,1011.76
2024-02-29T00:34:13.061Z,1011.73
2024-02-29T00:35:12.929Z,1011.75
2024-02-29T00:36:12.904Z,1011.72
2024-02-29T00:37:12.933Z,1011.72
2024-02-29T00:38:12.839Z,1011.75
2024-02-29T00:39:15.270Z,1011.73
2024-02-29T00:40:12.874Z,1011.73
2024-02-29T00:41:12.759Z,1011.72
2024-02-29T00:42:12.725Z,1011.71
2024-02-29T00:43:12.751Z,1011.70
2024-02-29T00:44:12.677Z,1011.65
2024-02-29T00:45:12.659Z,1011.65
2024-02-29T00:46:12.738Z,1011.64
2024-02-29T00:47:12.589Z,1011.62
2024-02-29T00:48:12.597Z,1011.62
2024-02-29T00:49:12.643Z,1011.59
2024-02-29T00:50:12.506Z,1011.59
2024-02-29T00:51:12.479Z,1011.55
2024-02-29T00:52:12.537Z,1011.57
2024-02-29T00:53:12.425Z,1011.57
2024-02-29T00:54:12.391Z,1011.54
2024-02-29T00:55:12.435Z,1011.55
2024-02-29T00:56:12.339Z,1011.55
2024-02-29T00:57:12.319Z,1011.52
2024-02-29T00:58:12.322Z,1011.50
2024-02-29T00:59:12.255Z,1011.53
2024-02-29T01:00:12.224Z,1011.49
2024-02-29T01:01:12.272Z,1011.47
2024-02-29T01:02:12.287Z,1011.42
2024-02-29T01:03:12.147Z,1011.41
2024-02-29T01:04:12.135Z,1011.38
2024-02-29T01:05:12.154Z,1011.38
2024-02-29T01:06:12.057Z,1011.31
2024-02-29T01:07:12.121Z,1011.32
2024-02-29T01:08:12.008Z,1011.34
2024-02-29T01:09:11.978Z,1011.32
2024-02-29T01:10:12.011Z,1011.34
2024-02-29T01:11:12.003Z,1011.34
2024-02-29T01:12:11.893Z,1011.33
2024-02-29T01:13:11.913Z,1011.32
2024-02-29T01:14:11.839Z,1011.28
2024-02-29T01:15:11.814Z,1011.32
2024-02-29T01:16:11.895Z,1011.27
2024-02-29T01:17:11.757Z,1011.28
2024-02-29T01:18:11.872Z,1011.26
2024-02-29T01:19:11.777Z,1011.23
2024-02-29T01:20:11.700Z,1011.25
2024-02-29T01:21:11.647Z,1011.22
2024-02-29T01:22:12.827Z,1011.25
2024-02-29T01:23:11.584Z,1011.24
2024-02-29T01:24:11.564Z,1011.23
2024-02-29T01:25:11.615Z,1011.21
2024-02-29T01:26:11.517Z,1011.16
2024-02-29T01:27:11.482Z,1011.13
2024-02-29T01:28:11.504Z,1011.17
2024-02-29T01:29:11.435Z,1011.08
2024-02-29T01:30:11.393Z,1011.11
2024-02-29T01:31:11.431Z,1011.04
2024-02-29T01:32:18.652Z,1011.04
2024-02-29T01:33:11.364Z,1011.01
2024-02-29T01:34:11.345Z,1010.97
2024-02-29T01:35:11.256Z,1010.98
2024-02-29T01:36:11.229Z,1010.97
2024-02-29T01:37:11.251Z,1010.94
2024-02-29T01:38:11.168Z,1010.94
2024-02-29T01:39:11.144Z,1010.90
2024-02-29T01:40:11.218Z,1010.87
2024-02-29T01:41:11.090Z,1010.89
2024-02-29T01:42:11.055Z,1010.87
2024-02-29T01:43:11.077Z,1010.87
2024-02-29T01:44:10.998Z,1010.86
2024-02-29T01:45:10.972Z,1010.81
2024-02-29T01:46:10.995Z,1010.76
2024-02-29T01:47:10.924Z,1010.76
2024-02-29T01:48:10.962Z,1010.77
2024-02-29T01:49:10.900Z,1010.76
2024-02-29T01:50:10.856Z,1010.73
2024-02-29T01:51:10.810Z,1010.74
2024-02-29T01:52:10.849Z,1010.73
2024-02-29T01:53:10.765Z,1010.70
2024-02-29T01:54:10.731Z,1010.71
2024-02-29T01:55:10.711Z,1010.68
2024-02-29T01:56:10.682Z,1010.67
2024-02-29T01:57:10.650Z,1010.66
2024-02-29T01:58:11.981Z,1010.60
2024-02-29T01:59:10.585Z,1010.62
2024-02-29T02:00:10.557Z,1010.59
2024-02-29T02:01:10.595Z,1010.64
2024-02-29T02:02:10.506Z,1010.62
2024-02-29T02:03:10.478Z,1010.62
2024-02-29T02:04:10.515Z,1010.62
2024-02-29T02:05:10.510Z,1010.61
2024-02-29T02:06:10.520Z,1010.60
2024-02-29T02:07:10.407Z,1010.55
2024-02-29T02:08:10.329Z,1010.58
2024-02-29T02:09:10.304Z,1010.57
2024-02-29T02:10:10.311Z,1010.53
2024-02-29T02:11:10.294Z,1010.55
2024-02-29T02:12:10.224Z,1010.52
2024-02-29T02:13:10.256Z,1010.53
2024-02-29T02:14:10.167Z,1010.51
2024-02-29T02:15:10.137Z,1010.54
2024-02-29T02:16:10.122Z,1010.49
2024-02-29T02:17:10.076Z,1010.46
2024-02-29T02:18:10.077Z,1010.45
2024-02-29T02:19:10.099Z,1010.46
2024-02-29T02:20:09.993Z,1010.48
2024-02-29T02:21:09.968Z,1010.43
2024-02-29T02:22:10.057Z,1010.42
2024-02-29T02:23:09.917Z,1010.40
2024-02-29T02:24:09.891Z,1010.42
2024-02-29T02:25:09.996Z,1010.42
2024-02-29T02:26:09.822Z,1010.41
2024-02-29T02:27:09.804Z,1010.37
2024-02-29T02:28:09.851Z,1010.40
2024-02-29T02:29:09.750Z,1010.36
2024-02-29T02:30:09.731Z,1010.33
2024-02-29T02:31:09.782Z,1010.36
2024-02-29T02:32:09.662Z,1010.33
2024-02-29T02:33:09.700Z,1010.32
2024-02-29T02:34:09.664Z,1010.30
2024-02-29T02:35:09.583Z,1010.28
2024-02-29T02:36:09.562Z,1010.26
2024-02-29T02:37:09.557Z,1010.25
2024-02-29T02:38:09.616Z,1010.23
2024-02-29T02:39:09.464Z,1010.19
2024-02-29T02:40:09.681Z,1010.20
2024-02-29T02:41:09.409Z,1010.19
2024-02-29T02:42:09.381Z,1010.15
2024-02-29T02:43:09.419Z,1010.15
2024-02-29T02:44:09.323Z,1010.15
2024-02-29T02:45:09.300Z,1010.11
2024-02-29T02:46:09.303Z,1010.09
2024-02-29T02:47:09.246Z,1010.10
2024-02-29T02:48:09.258Z,1010.06
2024-02-29T02:49:09.294Z,1010.07
2024-02-29T02:50:09.242Z,1010.07
2024-02-29T02:51:09.142Z,1010.06
2024-02-29T02:52:09.143Z,1010.04
2024-02-29T02:53:09.076Z,1010.03
2024-02-29T02:54:09.056Z,1010.03
2024-02-29T02:55:09.106Z,1010.02
2024-02-29T02:56:09.001Z,1009.98
2024-02-29T02:57:08.966Z,1009.96
2024-02-29T02:58:09.087Z,1009.95
2024-02-29T02:59:08.932Z,1009.94
2024-02-29T03:00:08.910Z,1009.90
2024-02-29T03:01:09.007Z,1009.89
2024-02-29T03:02:08.858Z,1009.88
2024-02-29T03:03:08.794Z,1009.88
2024-02-29T03:04:08.857Z,1009.88
2024-02-29T03:05:08.741Z,1009.85
2024-02-29T03:06:08.715Z,1009.85
2024-02-29T03:07:08.756Z,1009.87
2024-02-29T03:08:08.661Z,1009.82
2024-02-29T03:09:08.636Z,1009.80
2024-02-29T03:10:08.727Z,1009.80
2024-02-29T03:11:08.646Z,1009.78
2024-02-29T03:12:08.544Z,1009.76
2024-02-29T03:13:08.636Z,1009.73
2024-02-29T03:14:08.501Z,1009.68
2024-02-29T03:15:08.481Z,1009.68
2024-02-29T03:16:08.489Z,1009.64
2024-02-29T03:17:08.406Z,1009.64
2024-02-29T03:18:08.406Z,1009.60
2024-02-29T03:19:08.401Z,1009.59
2024-02-29T03:20:08.322Z,1009.58
2024-02-29T03:21:08.291Z,1009.53
2024-02-29T03:22:08.389Z,1009.54
2024-02-29T03:23:08.246Z,1009.49
2024-02-29T03:24:08.209Z,1009.52
2024-02-29T03:25:08.213Z,1009.51
2024-02-29T03:26:08.182Z,1009.51
2024-02-29T03:27:08.120Z,1009.55
2024-02-29T03:28:08.207Z,1009.54
2024-02-29T03:29:08.076Z,1009.52
2024-02-29T03:30:08.135Z,1009.54
2024-02-29T03:31:08.101Z,1009.50
2024-02-29T03:32:07.983Z,1009.50
2024-02-29T03:33:08.000Z,1009.48
2024-02-29T03:34:07.973Z,1009.45
2024-02-29T03:35:07.905Z,1009.44
2024-02-29T03:36:07.884Z,1009.41
2024-02-29T03:37:07.902Z,1009.36
2024-02-29T03:38:07.834Z,1009.34
2024-02-29T03:39:07.786Z,1009.37
2024-02-29T03:40:07.820Z,1009.31
2024-02-29T03:41:08.045Z,1009.31
2024-02-29T03:42:07.735Z,1009.28
2024-02-29T03:43:07.778Z,1009.27
2024-02-29T03:44:07.644Z,1009.23
2024-02-29T03:45:07.615Z,1009.24
2024-02-29T03:46:07.636Z,1009.23
2024-02-29T03:47:07.563Z,1009.23
2024-02-29T03:48:07.578Z,1009.17
2024-02-29T03:49:07.551Z,1009.18
2024-02-29T03:50:07.493Z,1009.18
2024-02-29T03:51:07.471Z,1009.19
2024-02-29T03:52:07.440Z,1009.15
2024-02-29T03:53:07.407Z,1009.15
2024-02-29T03:54:07.371Z,1009.17
2024-02-29T03:55:07.368Z,1009.13
2024-02-29T03:56:07.315Z,1009.15
2024-02-29T03:57:07.288Z,1009.12
2024-02-29T03:58:07.312Z,1009.11
2024-02-29T03:59:07.236Z,1009.11
2024-02-29T04:00:07.205Z,1009.08
2024-02-29T04:01:07.226Z,1009.07
2024-02-29T04:02:07.164Z,1009.05
2024-02-29T04:03:07.121Z,1009.06
2024-02-29T04:04:07.139Z,1009.05
2024-02-29T04:05:07.061Z,1009.04
2024-02-29T04:06:07.030Z,1009.02
2024-02-29T04:07:07.030Z,1009.05
2024-02-29T04:08:06.978Z,1009.03
2024-02-29T04:09:06.962Z,1008.99
2024-02-29T04:10:07.009Z,1009.03
2024-02-29T04:11:06.927Z,1009.05
2024-02-29T04:12:06.860Z,1009.00
2024-02-29T04:13:06.922Z,1009.00
2024-02-29T04:14:06.851Z,1008.98
2024-02-29T04:15:06.791Z,1008.93
2024-02-29T04:16:06.789Z,1008.94
2024-02-29T04:17:06.728Z,1008.99
2024-02-29T04:18:06.711Z,1008.92
2024-02-29T04:19:06.892Z,1008.93
2024-02-29T04:20:06.646Z,1008.97
2024-02-29T04:21:06.610Z,1008.94
2024-02-29T04:22:06.613Z,1008.94
2024-02-29T04:23:06.556Z,1008.90
2024-02-29T04:24:06.544Z,1008.95
2024-02-29T04:25:06.572Z,1008.93
2024-02-29T04:26:06.467Z,1008.94
2024-02-29T04:27:06.444Z,1008.94
2024-02-29T04:28:06.468Z,1008.86
2024-02-29T04:29:06.393Z,1008.87
2024-02-29T04:30:06.393Z,1008.87
2024-02-29T04:31:06.455Z,1008.85
2024-02-29T04:32:06.303Z,1008.82
2024-02-29T04:33:06.330Z,1008.76
2024-02-29T04:34:06.398Z,1008.77
2024-02-29T04:35:06.225Z,1008.77
2024-02-29T04:36:06.197Z,1008.76
2024-02-29T04:37:06.213Z,1008.75
2024-02-29T04:38:06.140Z,1008.74
2024-02-29T04:39:06.103Z,1008.73
2024-02-29T04:40:08.980Z,1008.74
2024-02-29T04:41:06.050Z,1008.70
2024-02-29T04:42:06.023Z,1008.72
2024-02-29T04:43:06.004Z,1008.68
2024-02-29T04:44:05.962Z,1008.72
2024-02-29T04:45:05.936Z,1008.68
2024-02-29T04:46:05.992Z,1008.66
2024-02-29T04:47:05.879Z,1008.64
2024-02-29T04:48:05.922Z,1008.67
2024-02-29T04:49:05.871Z,1008.61
2024-02-29T04:50:05.886Z,1008.61
2024-02-29T04:51:05.855Z,1008.60
2024-02-29T04:52:05.793Z,1008.60
2024-02-29T04:53:05.715Z,1008.57
2024-02-29T04:54:05.686Z,1008.52
2024-02-29T04:55:05.822Z,1008.56
2024-02-29T04:56:05.630Z,1008.56
2024-02-29T04:57:05.627Z,1008.54
2024-02-29T04:58:05.677Z,1008.53
2024-02-29T04:59:05.551Z,1008.56
2024-02-29T05:00:05.532Z,1008.54
2024-02-29T05:01:05.575Z,1008.53
2024-02-29T05:02:07.445Z,1008.53
2024-02-29T05:03:05.426Z,1008.53
2024-02-29T05:04:05.435Z,1008.50
2024-02-29T05:05:05.378Z,1008.47
2024-02-29T05:06:05.352Z,1008.48
2024-02-29T05:07:05.429Z,1008.44
2024-02-29T05:08:05.294Z,1008.46
2024-02-29T05:09:05.279Z,1008.45
2024-02-29T05:10:05.283Z,1008.46
2024-02-29T05:11:05.310Z,1008.44
2024-02-29T05:12:05.225Z,1008.42
2024-02-29T05:13:05.251Z,1008.42
2024-02-29T05:14:05.122Z,1008.39
2024-02-29T05:15:05.098Z,1008.37
2024-02-29T05:16:05.089Z,1008.36
2024-02-29T05:17:05.060Z,1008.34
2024-02-29T05:18:05.168Z,1008.31
2024-02-29T05:19:05.019Z,1008.32
2024-02-29T05:20:04.958Z,1008.34
2024-02-29T05:21:04.923Z,1008.28
2024-02-29T05:22:04.929Z,1008.30
2024-02-29T05:23:04.865Z,1008.30
2024-02-29T05:24:04.846Z,1008.29
2024-02-29T05:25:04.827Z,1008.31
2024-02-29T05:26:04.789Z,1008.28
2024-02-29T05:27:04.761Z,1008.29
2024-02-29T05:28:04.801Z,1008.28
2024-02-29T05:29:04.715Z,1008.27
2024-02-29T05:30:04.681Z,1008.26
2024-02-29T05:31:04.687Z,1008.25
2024-02-29T05:32:04.626Z,1008.24
2024-02-29T05:33:04.599Z,1008.21
2024-02-29T05:34:04.671Z,1008.25
2024-02-29T05:35:04.530Z,1008.23
2024-02-29T05:36:04.515Z,1008.23
2024-02-29T05:37:04.517Z,1008.20
2024-02-29T05:38:04.461Z,1008.22
2024-02-29T05:39:04.426Z,1008.21
2024-02-29T05:40:04.507Z,1008.21
2024-02-29T05:41:04.457Z,1008.21
2024-02-29T05:42:04.341Z,1008.19
2024-02-29T05:43:04.431Z,1008.18
2024-02-29T05:44:04.283Z,1008.18
2024-02-29T05:45:04.254Z,1008.14
2024-02-29T05:46:04.225Z,1008.12
2024-02-29T05:47:04.203Z,1008.12
2024-02-29T05:48:04.189Z,1008.13
2024-02-29T05:49:04.177Z,1008.14
2024-02-29T05:50:04.142Z,1008.13
2024-02-29T05:51:04.086Z,1008.14
2024-02-29T05:52:04.130Z,1008.18
2024-02-29T05:53:04.028Z,1008.17
2024-02-29T05:54:04.011Z,1008.14
2024-02-29T05:55:04.036Z,1008.15
2024-02-29T05:56:04.021Z,1008.15
2024-02-29T05:57:06.217Z,1008.14
2024-02-29T05:58:03.935Z,1008.12
2024-02-29T05:59:03.867Z,1008.13
2024-02-29T06:00:03.836Z,1008.13
2024-02-29T06:01:03.851Z,1008.07
2024-02-29T06:02:03.874Z,1008.11
2024-02-29T06:03:03.757Z,1008.09
2024-02-29T06:04:03.752Z,1008.07
2024-02-29T06:05:03.710Z,1008.12
2024-02-29T06:06:03.779Z,1008.10
2024-02-29T06:07:03.652Z,1008.10
2024-02-29T06:08:03.604Z,1008.08
2024-02-29T06:09:03.596Z,1008.09
2024-02-29T06:10:03.579Z,1008.09
2024-02-29T06:11:03.545Z,1008.14
2024-02-29T06:12:03.499Z,1008.09
2024-02-29T06:13:03.521Z,1008.09
2024-02-29T06:14:03.464Z,1008.07
2024-02-29T06:15:03.426Z,1008.10
2024-02-29T06:16:03.434Z,1008.04
2024-02-29T06:17:03.389Z,1008.07
2024-02-29T06:18:03.374Z,1008.07
2024-02-29T06:19:03.348Z,1008.11
2024-02-29T06:20:03.277Z,1008.06
2024-02-29T06:21:03.244Z,1008.14
2024-02-29T06:22:03.257Z,1008.14
2024-02-29T06:23:03.185Z,1008.09
2024-02-29T06:24:03.172Z,1008.10
2024-02-29T06:25:03.200Z,1008.09
2024-02-29T06:26:03.106Z,1008.04
2024-02-29T06:27:03.089Z,1008.02
2024-02-29T06:28:03.101Z,1007.99
2024-02-29T06:29:03.031Z,1007.98
2024-02-29T06:30:02.997Z,1008.00
2024-02-29T06:31:02.998Z,1007.97
2024-02-29T06:32:03.009Z,1008.01
2024-02-29T06:33:03.017Z,1008.00
2024-02-29T06:34:02.954Z,1007.98
2024-02-29T06:35:02.857Z,1007.97
2024-02-29T06:36:02.903Z,1008.00
2024-02-29T06:37:02.818Z,1008.00
2024-02-29T06:38:02.886Z,1007.97
2024-02-29T06:39:02.740Z,1007.96
2024-02-29T06:40:02.812Z,1007.99
2024-02-29T06:41:02.683Z,1007.99
2024-02-29T06:42:02.651Z,1007.95
2024-02-29T06:43:02.743Z,1007.93
2024-02-29T06:44:02.613Z,1007.97
2024-02-29T06:45:02.569Z,1007.92
2024-02-29T06:46:02.615Z,1007.92
2024-02-29T06:47:02.522Z,1007.93
2024-02-29T06:48:02.516Z,1007.92
2024-02-29T06:49:02.515Z,1007.89
2024-02-29T06:50:02.487Z,1007.90
2024-02-29T06:51:02.401Z,1007.90
2024-02-29T06:52:02.388Z,1007.86
2024-02-29T06:53:02.366Z,1007.89
2024-02-29T06:54:02.359Z,1007.90
2024-02-29T06:55:02.347Z,1007.88
2024-02-29T06:56:02.306Z,1007.88
2024-02-29T06:57:02.230Z,1007.86
2024-02-29T06:58:02.312Z,1007.84
2024-02-29T06:59:02.176Z,1007.81
2024-02-29T07:00:02.152Z,1007.80
2024-02-29T07:01:02.232Z,1007.76
2024-02-29T07:02:02.168Z,1007.75
2024-02-29T07:03:02.075Z,1007.76
2024-02-29T07:04:02.125Z,1007.73
2024-02-29T07:05:02.015Z,1007.78
2024-02-29T07:06:02.011Z,1007.73
2024-02-29T07:07:02.011Z,1007.74
2024-02-29T07:08:01.932Z,1007.74
2024-02-29T07:09:01.905Z,1007.74
2024-02-29T07:10:01.964Z,1007.72
2024-02-29T07:11:02.570Z,1007.72
2024-02-29T07:12:01.831Z,1007.69
2024-02-29T07:13:01.897Z,1007.71
2024-02-29T07:14:01.764Z,1007.67
2024-02-29T07:15:01.734Z,1007.68
2024-02-29T07:16:01.738Z,1007.67
2024-02-29T07:17:01.670Z,1007.65
2024-02-29T07:18:01.672Z,1007.61
2024-02-29T07:19:01.651Z,1007.65
2024-02-29T07:20:01.610Z,1007.62
2024-02-29T07:21:01.558Z,1007.63
2024-02-29T07:22:01.564Z,1007.61
2024-02-29T07:23:01.511Z,1007.60
2024-02-29T07:24:01.484Z,1007.60
2024-02-29T07:25:01.495Z,1007.60
2024-02-29T07:26:01.443Z,1007.63
2024-02-29T07:27:01.390Z,1007.56
2024-02-29T07:28:01.418Z,1007.57
2024-02-29T07:29:01.342Z,1007.57
2024-02-29T07:30:01.368Z,1007.56
2024-02-29T07:31:01.339Z,1007.48
2024-02-29T07:32:01.271Z,1007.52
2024-02-29T07:33:01.267Z,1007.49
2024-02-29T07:34:01.415Z,1007.49
2024-02-29T07:35:01.181Z,1007.52
2024-02-29T07:36:01.152Z,1007.52
2024-02-29T07:37:01.199Z,1007.52
2024-02-29T07:38:01.094Z,1007.50
2024-02-29T07:39:01.077Z,1007.53
2024-02-29T07:40:01.330Z,1007.48
2024-02-29T07:41:01.025Z,1007.50
2024-02-29T07:42:01.001Z,1007.46
2024-02-29T07:43:00.983Z,1007.44
2024-02-29T07:44:00.928Z,1007.45
2024-02-29T07:45:00.904Z,1007.42
2024-02-29T07:46:00.886Z,1007.43
2024-02-29T07:47:00.843Z,1007.45
2024-02-29T07:48:00.867Z,1007.45
2024-02-29T07:49:00.798Z,1007.44
2024-02-29T07:50:00.758Z,1007.45
2024-02-29T07:51:00.721Z,1007.45
2024-02-29T07:52:00.794Z,1007.45
2024-02-29T07:53:00.760Z,1007.47
2024-02-29T07:54:00.685Z,1007.46
2024-02-29T07:55:00.701Z,1007.48
2024-02-29T07:56:00.607Z,1007.46
2024-02-29T07:57:00.576Z,1007.50
2024-02-29T07:58:00.658Z,1007.53
2024-02-29T07:59:00.504Z,1007.54
2024-02-29T08:00:00.516Z,1007.52
2024-02-29T08:01:00.576Z,1007.52
2024-02-29T08:02:00.494Z,1007.51
2024-02-29T08:03:00.392Z,1007.52
2024-02-29T08:04:00.419Z,1007.53
2024-02-29T08:05:00.349Z,1007.53
2024-02-29T08:06:00.331Z,1007.51
2024-02-29T08:07:00.297Z,1007.48
2024-02-29T08:08:00.262Z,1007.47
2024-02-29T08:09:00.246Z,1007.49
2024-02-29T08:10:00.324Z,1007.48
2024-02-29T08:11:00.177Z,1007.52
2024-02-29T08:12:00.252Z,1007.51
2024-02-29T08:13:00.166Z,1007.48
2024-02-29T08:14:00.122Z,1007.54
2024-02-29T08:15:00.081Z,1007.49
2024-02-29T08:16:00.094Z,1007.50
2024-02-29T08:17:00.020Z,1007.58
2024-02-29T08:18:00.005Z,1007.50
2024-02-29T08:18:59.961Z,1007.48
2024-02-29T08:19:59.935Z,1007.52
2024-02-29T08:20:59.903Z,1007.50
2024-02-29T08:21:59.896Z,1007.48
2024-02-29T08:22:59.837Z,1007.48
2024-02-29T08:23:59.811Z,1007.46
2024-02-29T08:24:59.875Z,1007.43
2024-02-29T08:25:59.755Z,1007.33
2024-02-29T08:26:59.726Z,1007.37
2024-02-29T08:27:59.772Z,1007.34
2024-02-29T08:28:59.687Z,1007.33
2024-02-29T08:29:59.666Z,1007.30
2024-02-29T08:30:59.648Z,1007.32
2024-02-29T08:31:59.638Z,1007.31
2024-02-29T08:32:59.603Z,1007.26
2024-02-29T08:33:59.573Z,1007.27
2024-02-29T08:34:59.508Z,1007.20
2024-02-29T08:35:59.483Z,1007.23
2024-02-29T08:36:59.545Z,1007.19
2024-02-29T08:37:59.432Z,1007.23
2024-02-29T08:38:59.396Z,1007.13
2024-02-29T08:39:59.400Z,1007.20
2024-02-29T08:40:59.343Z,1007.18
2024-02-29T08:41:59.326Z,1007.19
2024-02-29T08:42:59.317Z,1007.13
2024-02-29T08:43:59.263Z,1007.13
2024-02-29T08:44:59.242Z,1007.13
2024-02-29T08:45:59.268Z,1007.10
2024-02-29T08:46:59.177Z,1007.09
2024-02-29T08:47:59.197Z,1007.12
2024-02-29T08:49:02.037Z,1007.12
2024-02-29T08:49:59.096Z,1007.16
2024-02-29T08:50:59.072Z,1007.11
2024-02-29T08:51:59.125Z,1007.12
2024-02-29T08:52:59.036Z,1007.11
2024-02-29T08:53:58.985Z,1007.12
2024-02-29T08:54:59.007Z,1007.09
2024-02-29T08:55:58.934Z,1007.04
2024-02-29T08:56:58.911Z,1007.02
2024-02-29T08:57:58.888Z,1007.05
2024-02-29T08:58:58.852Z,1007.04
2024-02-29T08:59:58.835Z,1006.99
2024-02-29T09:00:58.863Z,1007.00
2024-02-29T09:01:58.918Z,1006.98
2024-02-29T09:02:58.756Z,1007.00
2024-02-29T09:03:58.750Z,1006.97
2024-02-29T09:04:58.713Z,1006.98
2024-02-29T09:05:58.669Z,1006.99
2024-02-29T09:06:58.637Z,1006.95
2024-02-29T09:07:58.605Z,1006.97
2024-02-29T09:08:58.585Z,1006.97
2024-02-29T09:09:58.578Z,1006.98
2024-02-29T09:10:58.533Z,1006.93
2024-02-29T09:11:58.561Z,1006.89
2024-02-29T09:12:58.508Z,1006.89
2024-02-29T09:13:58.512Z,1006.91
2024-02-29T09:14:58.416Z,1006.92
2024-02-29T09:15:58.414Z,1006.90
2024-02-29T09:16:58.370Z,1006.87
2024-02-29T09:17:58.381Z,1006.93
2024-02-29T09:19:00.011Z,1006.87
2024-02-29T09:19:58.281Z,1006.85
2024-02-29T09:20:58.381Z,1006.90
2024-02-29T09:21:58.253Z,1006.86
2024-02-29T09:22:58.203Z,1006.83
2024-02-29T09:23:58.167Z,1006.80
2024-02-29T09:24:58.185Z,1006.78
2024-02-29T09:25:58.110Z,1006.77
2024-02-29T09:26:58.092Z,1006.73
2024-02-29T09:27:58.090Z,1006.79
2024-02-29T09:28:58.037Z,1006.73
2024-02-29T09:29:58.850Z,1006.74
2024-02-29T09:30:58.020Z,1006.73
2024-02-29T09:31:57.995Z,1006.68
2024-02-29T09:32:58.021Z,1006.71
2024-02-29T09:33:58.027Z,1006.69
2024-02-29T09:34:57.875Z,1006.66
2024-02-29T09:35:57.885Z,1006.67
2024-02-29T09:36:57.928Z,1006.69
2024-02-29T09:37:57.868Z,1006.70
2024-02-29T09:38:57.766Z,1006.70
2024-02-29T09:39:57.855Z,1006.64
2024-02-29T09:41:03.433Z,1006.64
2024-02-29T09:42:11.652Z,1006.56
2024-02-29T09:42:57.683Z,1006.60
2024-02-29T09:43:57.643Z,1006.59
2024-02-29T09:44:57.602Z,1006.58
2024-02-29T09:45:57.582Z,1006.57
2024-02-29T09:46:57.545Z,1006.55
2024-02-29T09:47:57.532Z,1006.57
2024-02-29T09:48:57.495Z,1006.49
2024-02-29T09:50:02.019Z,1006.54
2024-02-29T09:50:57.444Z,1006.53
2024-02-29T09:51:57.472Z,1006.49
2024-02-29T09:52:57.402Z,1006.50
2024-02-29T09:53:57.361Z,1006.44
2024-02-29T09:54:57.363Z,1006.42
2024-02-29T09:55:57.307Z,1006.43
2024-02-29T09:56:57.283Z,1006.46
2024-02-29T09:57:57.288Z,1006.44
2024-02-29T09:58:57.245Z,1006.46
2024-02-29T09:59:57.201Z,1006.43
2024-02-29T10:00:57.281Z,1006.45
2024-02-29T10:01:57.340Z,1006.38
2024-02-29T10:02:57.125Z,1006.39
2024-02-29T10:03:57.111Z,1006.38
2024-02-29T10:04:57.084Z,1006.39
2024-02-29T10:05:57.158Z,1006.34
2024-02-29T10:06:57.090Z,1006.34
2024-02-29T10:07:56.986Z,1006.31
2024-02-29T10:08:56.958Z,1006.35
2024-02-29T10:09:56.945Z,1006.32
2024-02-29T10:10:56.918Z,1006.35
2024-02-29T10:11:56.993Z,1006.38
2024-02-29T10:12:57.431Z,1006.36
2024-02-29T10:13:56.839Z,1006.36
2024-02-29T10:14:56.817Z,1006.33
2024-02-29T10:15:56.811Z,1006.30
2024-02-29T10:16:56.749Z,1006.33
2024-02-29T10:17:56.814Z,1006.35
2024-02-29T10:18:56.729Z,1006.33
2024-02-29T10:19:56.692Z,1006.30
2024-02-29T10:20:56.644Z,1006.31
2024-02-29T10:21:56.689Z,1006.32
2024-02-29T10:22:56.598Z,1006.25
2024-02-29T10:23:56.569Z,1006.29
2024-02-29T10:24:56.573Z,1006.29
2024-02-29T10:25:56.508Z,1006.27
2024-02-29T10:26:56.489Z,1006.26
2024-02-29T10:27:56.483Z,1006.26
2024-02-29T10:28:56.444Z,1006.25
2024-02-29T10:29:56.410Z,1006.26
2024-02-29T10:30:56.425Z,1006.21
2024-02-29T10:31:56.352Z,1006.17
2024-02-29T10:32:56.340Z,1006.19
2024-02-29T10:33:56.311Z,1006.18
2024-02-29T10:34:56.281Z,1006.10
2024-02-29T10:35:56.259Z,1006.11
2024-02-29T10:36:57.449Z,1006.15
2024-02-29T10:37:56.268Z,1006.03
2024-02-29T10:38:56.172Z,1006.08
2024-02-29T10:39:56.155Z,1006.06
2024-02-29T10:40:56.115Z,1006.02
2024-02-29T10:41:56.088Z,1006.03
2024-02-29T10:42:56.107Z,1006.01
2024-02-29T10:43:56.051Z,1006.01
2024-02-29T10:44:56.012Z,1006.04
2024-02-29T10:45:56.031Z,1006.03
2024-02-29T10:46:55.959Z,1006.00
2024-02-29T10:47:55.953Z,1005.97
2024-02-29T10:48:55.979Z,1005.93
2024-02-29T10:49:55.881Z,1005.91
2024-02-29T10:50:55.862Z,1005.91
2024-02-29T10:51:55.876Z,1005.94
2024-02-29T10:52:55.801Z,1005.90
2024-02-29T10:53:55.806Z,1005.87
2024-02-29T10:54:55.790Z,1005.87
2024-02-29T10:55:55.736Z,1005.89
2024-02-29T10:56:55.706Z,1005.89
2024-02-29T10:57:55.709Z,1005.87
2024-02-29T10:58:55.675Z,1005.87
2024-02-29T10:59:55.623Z,1005.87
2024-02-29T11:00:55.760Z,1005.87
2024-02-29T11:01:55.648Z,1005.85
2024-02-29T11:02:57.409Z,1005.80
2024-02-29T11:03:55.551Z,1005.82
2024-02-29T11:04:55.547Z,1005.85
2024-02-29T11:05:55.464Z,1005.81
2024-02-29T11:06:55.506Z,1005.79
2024-02-29T11:07:55.428Z,1005.82
2024-02-29T11:08:55.403Z,1005.82
2024-02-29T11:09:55.545Z,1005.80
2024-02-29T11:10:55.377Z,1005.79
2024-02-29T11:11:55.309Z,1005.84
2024-02-29T11:12:55.322Z,1005.83
2024-02-29T11:13:55.257Z,1005.79
2024-02-29T11:14:55.229Z,1005.79
2024-02-29T11:15:55.249Z,1005.77
2024-02-29T11:16:55.183Z,1005.73
2024-02-29T11:17:55.220Z,1005.71
2024-02-29T11:18:55.225Z,1005.70
2024-02-29T11:19:57.626Z,1005.75
2024-02-29T11:20:55.072Z,1005.75
2024-02-29T11:21:55.054Z,1005.70
2024-02-29T11:22:57.042Z,1005.65
2024-02-29T11:23:55.005Z,1005.63
2024-02-29T11:24:55.042Z,1005.61
2024-02-29T11:25:55.021Z,1005.60
2024-02-29T11:26:54.923Z,1005.55
2024-02-29T11:27:54.934Z,1005.54
2024-02-29T11:28:54.870Z,1005.51
2024-02-29T11:29:54.843Z,1005.51
2024-02-29T11:30:54.828Z,1005.48
2024-02-29T11:31:54.797Z,1005.45
2024-02-29T11:32:54.824Z,1005.42
2024-02-29T11:33:54.796Z,1005.41
2024-02-29T11:34:54.718Z,1005.41
2024-02-29T11:35:54.701Z,1005.38
2024-02-29T11:36:54.698Z,1005.41
2024-02-29T11:37:54.645Z,1005.37
2024-02-29T11:38:54.621Z,1005.36
2024-02-29T11:39:54.628Z,1005.33
2024-02-29T11:40:54.563Z,1005.29
2024-02-29T11:41:54.552Z,1005.31
2024-02-29T11:42:54.543Z,1005.28
2024-02-29T11:43:54.489Z,1005.30
2024-02-29T11:44:54.462Z,1005.24
2024-02-29T11:45:54.449Z,1005.27
2024-02-29T11:46:54.408Z,1005.25
2024-02-29T11:47:54.397Z,1005.20
2024-02-29T11:48:57.229Z,1005.16
2024-02-29T11:49:54.326Z,1005.18
2024-02-29T11:50:54.307Z,1005.15
2024-02-29T11:51:54.291Z,1005.11
2024-02-29T11:52:54.251Z,1005.09
2024-02-29T11:53:54.234Z,1005.13
2024-02-29T11:54:54.246Z,1005.12
2024-02-29T11:56:02.513Z,1005.10
2024-02-29T11:56:54.152Z,1005.10
2024-02-29T11:57:54.168Z,1005.06
2024-02-29T11:58:54.102Z,1004.99
2024-02-29T11:59:56.271Z,1005.07
2024-02-29T12:00:54.074Z,1005.03
2024-02-29T12:01:54.391Z,1005.01
2024-02-29T12:02:54.010Z,1005.01
2024-02-29T12:03:53.979Z,1004.97
2024-02-29T12:04:53.959Z,1005.00
2024-02-29T12:05:53.928Z,1004.93
2024-02-29T12:06:53.903Z,1004.96
2024-02-29T12:07:53.887Z,1004.93
2024-02-29T12:08:53.851Z,1004.94
2024-02-29T12:09:53.884Z,1004.87
2024-02-29T12:10:53.869Z,1004.84
2024-02-29T12:11:53.774Z,1004.85
2024-02-29T12:12:53.801Z,1004.85
2024-02-29T12:13:53.767Z,1004.82
2024-02-29T12:14:53.705Z,1004.84
2024-02-29T12:15:55.592Z,1004.83
2024-02-29T12:16:53.644Z,1004.82
2024-02-29T12:17:53.681Z,1004.78